Terminal Aerodrome Forecast
Issued by NWS

Home | Current Version | Previous Version | Graphics & Text | Print | Product List | Glossary On
Versions: 1 2 3 4 5 6 7 8 9 10 11 12 13 14
000
FTUS43 KOAX 260300 AAB
TAFCDR
TAF AMD
KCDR 260310Z 2603/2624 19018G30KT P6SM BKN150
     FM260800 33007KT P6SM SCT100
     FM261800 02010G20KT P6SM SCT070=

USA.gov is the U.S. government's official web portal to all federal, state and local government web resources and services.